createdAt,value
2023-02-19T00:02:50.986Z,100936.53
2023-02-19T00:06:54.472Z,100935.41
2023-02-19T00:11:02.415Z,100930.81
2023-02-19T00:15:08.096Z,100930.81
2023-02-19T00:19:15.730Z,100933.53
2023-02-19T00:23:19.026Z,100907.25
2023-02-19T00:27:22.192Z,100918.59
2023-02-19T00:31:32.591Z,100915.22
2023-02-19T00:35:36.997Z,100924.53
2023-02-19T00:39:40.224Z,100918.66
2023-02-19T00:43:44.066Z,100910.25
2023-02-19T00:47:48.630Z,100913.22
2023-02-19T00:51:53.387Z,100900.41
2023-02-19T00:55:57.072Z,100912.38
2023-02-19T01:00:01.543Z,100906.47
2023-02-19T01:04:07.120Z,100902.69
2023-02-19T01:08:10.814Z,100893.44
2023-02-19T01:12:14.088Z,100877.69
2023-02-19T01:16:19.327Z,100883.38
2023-02-19T01:20:23.986Z,100892.25
2023-02-19T01:24:27.268Z,100879.66
2023-02-19T01:28:30.706Z,100894.81
2023-02-19T01:32:34.340Z,100888.06
2023-02-19T01:36:39.041Z,100884.50
2023-02-19T01:40:44.328Z,100898.59
2023-02-19T01:45:25.080Z,100899.00
2023-02-19T01:49:33.428Z,100923.44
2023-02-19T01:53:43.152Z,100905.75
2023-02-19T01:57:49.686Z,100909.53
2023-02-19T02:01:53.756Z,100900.28
2023-02-19T02:06:01.712Z,100904.69
2023-02-19T02:10:20.852Z,100896.91
2023-02-19T02:14:28.934Z,100906.56
2023-02-19T02:18:51.438Z,100911.22
2023-02-19T02:23:05.219Z,100899.63
2023-02-19T02:27:33.548Z,100893.75
2023-02-19T02:31:42.278Z,100894.81
2023-02-19T02:35:51.486Z,100891.44
2023-02-19T02:39:59.114Z,100894.81
2023-02-19T02:44:02.841Z,100880.72
2023-02-19T02:48:18.169Z,100904.47
2023-02-19T02:52:37.081Z,100909.94
2023-02-19T02:56:42.395Z,100907.44
2023-02-19T03:01:07.912Z,100898.19
2023-02-19T03:05:33.938Z,100896.91
2023-02-19T03:09:41.393Z,100905.09
2023-02-19T03:14:03.132Z,100920.69
2023-02-19T03:18:28.813Z,100902.38
2023-02-19T03:22:37.568Z,100909.94
2023-02-19T03:26:43.306Z,100917.09
2023-02-19T03:30:52.016Z,100920.88
2023-02-19T03:35:00.855Z,100928.44
2023-02-19T03:39:07.946Z,100936.19
2023-02-19T03:43:21.228Z,100942.69
2023-02-19T03:47:28.658Z,100929.22
2023-02-19T03:51:39.262Z,100939.53
2023-02-19T03:55:55.384Z,100970.56
2023-02-19T04:00:05.025Z,100968.25
2023-02-19T04:04:21.302Z,100996.19
2023-02-19T04:08:25.639Z,100986.28
2023-02-19T04:12:40.591Z,100995.91
2023-02-19T04:16:48.554Z,101000.34
2023-02-19T04:20:52.244Z,101005.38
2023-02-19T04:24:56.808Z,101004.91
2023-02-19T04:29:04.516Z,101010.75
2023-02-19T04:33:07.869Z,101020.88
2023-02-19T04:37:11.357Z,101011.53
2023-02-19T04:41:14.880Z,101022.47
2023-02-19T04:45:20.253Z,101025.97
2023-02-19T04:49:23.427Z,101032.75
2023-02-19T04:53:27.480Z,101032.09
2023-02-19T04:57:30.688Z,101036.25
2023-02-19T05:01:35.429Z,101049.28
2023-02-19T05:05:38.775Z,101050.31
2023-02-19T05:09:41.970Z,101054.47
2023-02-19T05:13:45.697Z,101060.97
2023-02-19T05:17:50.319Z,101069.38
2023-02-19T05:21:53.568Z,101074.84
2023-02-19T05:25:56.877Z,101077.09
2023-02-19T05:30:00.388Z,101083.16
2023-02-19T05:34:04.929Z,101086.91
2023-02-19T05:38:08.264Z,101094.00
2023-02-19T05:42:11.381Z,101103.25
2023-02-19T05:46:16.595Z,101104.94
2023-02-19T05:50:21.352Z,101104.94
2023-02-19T05:54:24.601Z,101114.53
2023-02-19T05:58:28.447Z,101113.88
2023-02-19T06:02:31.596Z,101117.00
2023-02-19T06:06:37.239Z,101117.38
2023-02-19T06:10:41.477Z,101119.72
2023-02-19T06:14:44.803Z,101124.72
2023-02-19T06:18:48.041Z,101129.34
2023-02-19T06:22:53.222Z,101123.22
2023-02-19T06:26:56.411Z,101130.75
2023-02-19T06:30:59.947Z,101129.44
2023-02-19T06:35:03.618Z,101137.63
2023-02-19T06:39:08.529Z,101153.34
2023-02-19T06:43:11.978Z,101164.66
2023-02-19T06:47:15.500Z,101156.47
2023-02-19T06:51:23.853Z,101161.91
2023-02-19T06:55:28.725Z,101172.19
2023-02-19T06:59:32.166Z,101189.88
2023-02-19T07:03:35.406Z,101184.41
2023-02-19T07:07:38.569Z,101199.75
2023-02-19T07:11:43.360Z,101192.78
2023-02-19T07:15:46.508Z,101215.13
2023-02-19T07:19:49.819Z,101211.34
2023-02-19T07:23:53.459Z,101213.03
2023-02-19T07:27:58.082Z,101226.31
2023-02-19T07:32:01.558Z,101220.66
2023-02-19T07:36:07.452Z,101234.16
2023-02-19T07:40:11.444Z,101244.69
2023-02-19T07:44:16.915Z,101245.34
2023-02-19T07:48:20.586Z,101260.72
2023-02-19T07:52:23.862Z,101268.69
2023-02-19T07:56:28.880Z,101264.38
2023-02-19T08:00:33.550Z,101272.00
2023-02-19T08:04:36.850Z,101291.63
2023-02-19T08:08:40.619Z,101283.03
2023-02-19T08:13:01.532Z,101285.88
2023-02-19T08:17:06.681Z,101290.50
2023-02-19T08:21:12.460Z,101289.16
2023-02-19T08:25:15.748Z,101297.84
2023-02-19T08:29:19.038Z,101292.19
2023-02-19T08:33:23.522Z,101298.13
2023-02-19T08:37:26.750Z,101295.00
2023-02-19T08:41:29.964Z,101287.09
2023-02-19T08:45:33.777Z,101300.47
2023-02-19T08:49:38.386Z,101304.69
2023-02-19T08:53:42.513Z,101317.25
2023-02-19T08:57:45.899Z,101325.16
2023-02-19T09:01:49.167Z,101321.53
2023-02-19T09:05:54.201Z,101332.16
2023-02-19T09:09:57.515Z,101328.56
2023-02-19T09:14:02.241Z,101335.25
2023-02-19T09:18:05.850Z,101352.97
2023-02-19T09:22:10.552Z,101354.84
2023-02-19T09:26:14.260Z,101357.41
2023-02-19T09:30:17.565Z,101370.31
2023-02-19T09:34:21.223Z,101370.13
2023-02-19T09:38:25.715Z,101362.44
2023-02-19T09:42:32.304Z,101379.97
2023-02-19T09:46:41.371Z,101375.66
2023-02-19T09:50:50.039Z,101375.16
2023-02-19T09:54:59.364Z,101387.69
2023-02-19T09:59:02.953Z,101398.34
2023-02-19T10:03:08.770Z,101401.09
2023-02-19T10:07:14.508Z,101393.69
2023-02-19T10:11:20.144Z,101403.38
2023-02-19T10:15:29.485Z,101413.94
2023-02-19T10:19:33.251Z,101433.59
2023-02-19T10:23:36.506Z,101425.88
2023-02-19T10:27:41.032Z,101421.63
2023-02-19T10:31:44.236Z,101429.06
2023-02-19T10:35:55.945Z,101444.06
2023-02-19T10:39:59.296Z,101449.19
2023-02-19T10:44:08.039Z,101470.50
2023-02-19T10:48:25.956Z,101479.31
2023-02-19T10:52:34.468Z,101487.00
2023-02-19T10:56:40.832Z,101494.09
2023-02-19T11:00:46.246Z,101492.91
2023-02-19T11:05:06.061Z,101492.41
2023-02-19T11:09:26.030Z,101498.25
2023-02-19T11:13:32.921Z,101499.56
2023-02-19T11:17:38.098Z,101484.00
2023-02-19T11:21:41.416Z,101478.13
2023-02-19T11:25:47.635Z,101459.63
2023-02-19T11:29:51.393Z,101437.75
2023-02-19T11:34:00.594Z,101419.81
2023-02-19T11:38:03.784Z,101395.91
2023-02-19T11:42:24.467Z,101379.84
2023-02-19T11:46:46.529Z,101383.53
2023-02-19T11:51:11.294Z,101386.28
2023-02-19T11:55:22.535Z,101372.72
2023-02-19T11:59:36.600Z,101401.81
2023-02-19T12:04:19.690Z,101395.66
2023-02-19T12:08:41.709Z,101403.50
2023-02-19T12:13:00.636Z,101415.38
2023-02-19T12:17:14.353Z,101404.44
2023-02-19T12:21:27.968Z,101405.59
2023-02-19T12:25:47.756Z,101404.41
2023-02-19T12:30:15.945Z,101405.19
2023-02-19T12:34:39.554Z,101409.81
2023-02-19T12:38:46.467Z,101406.91
2023-02-19T12:43:04.195Z,101404.16
2023-02-19T12:47:11.244Z,101420.19
2023-02-19T12:51:22.678Z,101408.31
2023-02-19T12:55:29.392Z,101407.63
2023-02-19T12:59:38.823Z,101417.47
2023-02-19T13:03:49.308Z,101435.66
2023-02-19T13:07:59.612Z,101434.84
2023-02-19T13:12:08.417Z,101437.88
2023-02-19T13:16:20.176Z,101449.09
2023-02-19T13:20:27.481Z,101479.25
2023-02-19T13:24:36.038Z,101495.56
2023-02-19T13:28:54.083Z,101501.72
2023-02-19T13:33:06.419Z,101521.31
2023-02-19T13:37:11.301Z,101517.69
2023-02-19T13:41:27.962Z,101523.94
2023-02-19T13:45:35.935Z,101519.81
2023-02-19T13:49:43.454Z,101501.34
2023-02-19T13:54:00.286Z,101511.97
2023-02-19T13:58:41.688Z,101522.53
2023-02-19T14:02:45.129Z,101525.34
2023-02-19T14:07:29.493Z,101533.66
2023-02-19T14:12:07.167Z,101551.41
2023-02-19T14:16:30.954Z,101558.75
2023-02-19T14:20:47.921Z,101559.59
2023-02-19T14:24:52.432Z,101547.06
2023-02-19T14:28:57.699Z,101544.41
2023-02-19T14:33:10.582Z,101552.81
2023-02-19T14:37:20.480Z,101566.53
2023-02-19T14:41:25.617Z,101573.31
2023-02-19T14:45:33.504Z,101582.63
2023-02-19T14:49:44.056Z,101567.44
2023-02-19T14:53:47.775Z,101563.53
2023-02-19T14:57:54.269Z,101569.19
2023-02-19T15:02:01.229Z,101568.34
2023-02-19T15:06:09.836Z,101563.53
2023-02-19T15:10:15.532Z,101571.75
2023-02-19T15:14:23.856Z,101548.72
2023-02-19T15:18:30.042Z,101543.78
2023-02-19T15:22:34.133Z,101541.63
2023-02-19T15:26:40.677Z,101527.97
2023-02-19T15:30:43.910Z,101527.03
2023-02-19T15:34:57.015Z,101516.09
2023-02-19T15:39:03.097Z,101504.44
2023-02-19T15:43:06.588Z,101484.94
2023-02-19T15:47:16.689Z,101479.16
2023-02-19T15:51:26.982Z,101471.91
2023-02-19T15:55:37.106Z,101471.78
2023-02-19T15:59:45.009Z,101476.19
2023-02-19T16:03:49.133Z,101472.03
2023-02-19T16:08:16.945Z,101474.00
2023-02-19T16:12:22.050Z,101469.72
2023-02-19T16:16:29.922Z,101493.53
2023-02-19T16:20:35.836Z,101496.25
2023-02-19T16:24:45.759Z,101500.38
2023-02-19T16:28:52.664Z,101506.72
2023-02-19T16:33:21.593Z,101514.13
2023-02-19T16:37:36.594Z,101505.16
2023-02-19T16:42:14.668Z,101497.50
2023-02-19T16:46:18.109Z,101513.22
2023-02-19T16:50:24.700Z,101533.38
2023-02-19T16:54:27.953Z,101529.13
2023-02-19T16:58:33.102Z,101548.75
2023-02-19T17:02:36.258Z,101557.16
2023-02-19T17:06:40.379Z,101559.72
2023-02-19T17:10:43.546Z,101573.69
2023-02-19T17:14:48.179Z,101569.66
2023-02-19T17:18:52.245Z,101570.97
2023-02-19T17:22:55.392Z,101582.09
2023-02-19T17:26:58.516Z,101584.84
2023-02-19T17:31:03.311Z,101587.41
2023-02-19T17:35:07.035Z,101589.13
2023-02-19T17:39:15.966Z,101582.47
2023-02-19T17:43:19.036Z,101584.00
2023-02-19T17:47:24.919Z,101593.91
2023-02-19T17:51:28.146Z,101602.25
2023-02-19T17:55:31.436Z,101621.19
2023-02-19T17:59:34.642Z,101624.59
2023-02-19T18:03:39.670Z,101621.88
2023-02-19T18:07:43.622Z,101615.00
2023-02-19T18:11:47.309Z,101619.47
2023-02-19T18:15:50.430Z,101621.31
2023-02-19T18:19:55.248Z,101622.50
2023-02-19T18:23:58.404Z,101635.44
2023-02-19T18:28:01.822Z,101630.31
2023-02-19T18:32:05.081Z,101631.19
2023-02-19T18:36:12.795Z,101624.72
2023-02-19T18:40:16.517Z,101621.81
2023-02-19T18:44:21.297Z,101606.50
2023-02-19T18:48:24.833Z,101614.47
2023-02-19T18:52:29.770Z,101622.47
2023-02-19T18:56:33.801Z,101626.50
2023-02-19T19:00:37.610Z,101627.16
2023-02-19T19:04:41.417Z,101642.13
2023-02-19T19:08:47.313Z,101646.53
2023-02-19T19:12:51.549Z,101648.03
2023-02-19T19:16:54.680Z,101647.13
2023-02-19T19:21:03.236Z,101672.84
2023-02-19T19:25:09.835Z,101680.63
2023-02-19T19:29:14.656Z,101684.38
2023-02-19T19:33:17.954Z,101678.06
2023-02-19T19:37:21.078Z,101680.09
2023-02-19T19:41:25.865Z,101672.56
2023-02-19T19:45:29.125Z,101671.53
2023-02-19T19:49:33.492Z,101669.84
2023-02-19T19:53:36.753Z,101666.78
2023-02-19T19:57:41.919Z,101681.72
2023-02-19T20:01:50.240Z,101683.53
2023-02-19T20:05:54.124Z,101686.72
2023-02-19T20:09:57.541Z,101705.06
2023-02-19T20:14:01.964Z,101707.09
2023-02-19T20:18:05.598Z,101713.63
2023-02-19T20:22:08.799Z,101700.34
2023-02-19T20:26:11.973Z,101704.69
2023-02-19T20:30:17.946Z,101701.44
2023-02-19T20:34:21.583Z,101698.66
2023-02-19T20:38:25.306Z,101708.31
2023-02-19T20:42:28.472Z,101710.63
2023-02-19T20:46:33.100Z,101711.91
2023-02-19T20:50:36.361Z,101725.41
2023-02-19T20:54:39.634Z,101742.13
2023-02-19T20:58:43.862Z,101758.34
2023-02-19T21:02:50.629Z,101762.84
2023-02-19T21:06:54.311Z,101754.81
2023-02-19T21:10:57.436Z,101758.72
2023-02-19T21:15:01.050Z,101742.69
2023-02-19T21:19:05.564Z,101751.28
2023-02-19T21:23:08.743Z,101757.19
2023-02-19T21:27:11.865Z,101748.78
2023-02-19T21:31:15.292Z,101756.09
2023-02-19T21:35:19.875Z,101748.84
2023-02-19T21:39:24.951Z,101746.13
2023-02-19T21:43:29.691Z,101737.97
2023-02-19T21:47:33.116Z,101746.34
2023-02-19T21:51:40.463Z,101745.72
2023-02-19T21:55:56.573Z,101748.09
2023-02-19T22:00:01.680Z,101744.69
2023-02-19T22:04:09.167Z,101733.97
2023-02-19T22:08:15.659Z,101728.94
2023-02-19T22:12:19.709Z,101748.34
2023-02-19T22:16:23.878Z,101744.31
2023-02-19T22:20:27.331Z,101758.00
2023-02-19T22:24:31.799Z,101750.06
2023-02-19T22:28:35.150Z,101749.34
2023-02-19T22:32:39.126Z,101738.19
2023-02-19T22:36:43.551Z,101740.38
2023-02-19T22:40:47.953Z,101745.22
2023-02-19T22:44:51.807Z,101747.22
2023-02-19T22:48:54.936Z,101756.06
2023-02-19T22:52:58.118Z,101751.81
2023-02-19T22:57:02.522Z,101752.06
2023-02-19T23:01:07.107Z,101751.03
2023-02-19T23:05:11.004Z,101735.16
2023-02-19T23:09:17.161Z,101738.84
2023-02-19T23:13:21.627Z,101740.41
2023-02-19T23:17:24.639Z,101730.78
2023-02-19T23:21:29.558Z,101733.75
2023-02-19T23:25:32.616Z,101738.41
2023-02-19T23:29:37.028Z,101726.00
2023-02-19T23:33:41.470Z,101724.13
2023-02-19T23:37:44.533Z,101730.13
2023-02-19T23:41:48.990Z,101714.75
2023-02-19T23:45:54.032Z,101709.84
2023-02-19T23:49:57.232Z,101710.44
2023-02-19T23:54:00.405Z,101694.25
2023-02-19T23:58:03.539Z,101701.38
